createdAt,value
2019-01-18T00:00:57.227Z,95.25
2019-01-18T00:01:57.226Z,96.19
2019-01-18T00:03:04.836Z,95.98
2019-01-18T00:03:57.216Z,95.88
2019-01-18T00:05:04.944Z,95.88
2019-01-18T00:05:57.194Z,96.09
2019-01-18T00:07:04.757Z,95.98
2019-01-18T00:07:57.180Z,96.09
2019-01-18T00:10:07.986Z,96.09
2019-01-18T00:11:15.529Z,96.19
2019-01-18T00:12:07.880Z,96.30
2019-01-18T00:14:17.798Z,95.78
2019-01-18T00:15:17.705Z,96.34
2019-01-18T00:16:25.183Z,95.40
2019-01-18T00:17:17.619Z,95.46
2019-01-18T00:18:25.344Z,95.40
2019-01-18T00:19:17.589Z,96.34
2019-01-18T00:20:25.212Z,95.50
2019-01-18T00:21:17.583Z,95.40
2019-01-18T00:22:26.524Z,95.92
2019-01-18T00:23:17.561Z,95.29
2019-01-18T00:25:27.335Z,95.72
2019-01-18T00:26:37.156Z,96.03
2019-01-18T00:27:27.270Z,95.82
2019-01-18T00:28:34.825Z,96.03
2019-01-18T00:29:29.684Z,96.03
2019-01-18T00:30:34.814Z,96.13
2019-01-18T00:31:27.249Z,95.40
2019-01-18T00:32:34.762Z,96.03
2019-01-18T00:33:27.209Z,96.13
2019-01-18T00:34:34.768Z,96.13
2019-01-18T00:35:27.202Z,96.03
2019-01-18T00:36:34.777Z,96.13
2019-01-18T00:37:27.176Z,95.92
2019-01-18T00:38:34.796Z,95.82
2019-01-18T00:39:27.164Z,96.23
2019-01-18T00:40:34.725Z,96.03
2019-01-18T00:41:27.117Z,96.03
2019-01-18T00:42:34.673Z,96.34
2019-01-18T00:43:27.066Z,96.66
2019-01-18T00:44:34.641Z,96.80
2019-01-18T00:45:27.073Z,96.44
2019-01-18T00:46:27.026Z,96.76
2019-01-18T00:47:27.065Z,97.07
2019-01-18T00:48:27.048Z,96.55
2019-01-18T00:49:27.000Z,96.23
2019-01-18T00:50:27.017Z,96.34
2019-01-18T00:51:26.978Z,96.44
2019-01-18T00:52:26.993Z,96.34
2019-01-18T00:53:27.013Z,96.44
2019-01-18T00:54:26.953Z,96.44
2019-01-18T00:55:26.980Z,96.13
2019-01-18T00:56:26.963Z,95.92
2019-01-18T00:57:26.939Z,96.03
2019-01-18T00:58:26.968Z,96.03
2019-01-18T00:59:26.911Z,95.92
2019-01-18T01:00:26.931Z,95.82
2019-01-18T01:01:26.875Z,95.92
2019-01-18T01:02:26.891Z,96.34
2019-01-18T01:03:26.899Z,96.13
2019-01-18T01:04:26.900Z,96.13
2019-01-18T01:05:26.896Z,96.34
2019-01-18T01:06:26.824Z,95.50
2019-01-18T01:07:26.832Z,95.92
2019-01-18T01:08:26.834Z,95.82
2019-01-18T01:09:26.826Z,95.29
2019-01-18T01:10:26.801Z,95.82
2019-01-18T01:11:26.836Z,95.72
2019-01-18T01:12:26.877Z,95.09
2019-01-18T01:13:26.765Z,95.40
2019-01-18T01:14:26.731Z,95.29
2019-01-18T01:15:26.716Z,95.29
2019-01-18T01:16:26.729Z,95.40
2019-01-18T01:17:26.715Z,95.72
2019-01-18T01:18:41.213Z,95.72
2019-01-18T01:19:26.682Z,95.29
2019-01-18T01:20:26.670Z,96.13
2019-01-18T01:21:26.706Z,96.03
2019-01-18T01:22:26.650Z,96.23
2019-01-18T01:24:35.697Z,96.13
2019-01-18T01:25:36.080Z,96.03
2019-01-18T01:26:35.455Z,96.23
2019-01-18T01:27:35.388Z,96.23
2019-01-18T01:28:35.406Z,96.13
2019-01-18T01:29:35.381Z,96.23
2019-01-18T01:30:35.359Z,96.23
2019-01-18T01:31:35.379Z,96.03
2019-01-18T01:32:35.393Z,95.61
2019-01-18T01:33:35.346Z,96.17
2019-01-18T01:34:35.378Z,95.19
2019-01-18T01:35:35.313Z,96.03
2019-01-18T01:36:35.292Z,95.92
2019-01-18T01:37:35.337Z,96.17
2019-01-18T01:38:35.274Z,96.44
2019-01-18T01:39:35.258Z,96.34
2019-01-18T01:40:35.253Z,96.03
2019-01-18T01:41:35.243Z,96.34
2019-01-18T01:42:35.247Z,96.17
2019-01-18T01:43:35.219Z,96.28
2019-01-18T01:44:35.231Z,95.97
2019-01-18T01:45:35.198Z,96.17
2019-01-18T01:46:35.190Z,95.86
2019-01-18T01:47:35.224Z,96.17
2019-01-18T01:48:35.172Z,95.65
2019-01-18T01:49:35.158Z,95.92
2019-01-18T01:50:35.152Z,96.07
2019-01-18T01:51:35.147Z,96.07
2019-01-18T01:52:35.129Z,96.07
2019-01-18T01:53:35.171Z,96.17
2019-01-18T01:54:35.110Z,95.55
2019-01-18T01:55:35.101Z,95.23
2019-01-18T01:56:35.090Z,95.34
2019-01-18T01:57:35.077Z,96.17
2019-01-18T01:58:35.092Z,95.86
2019-01-18T01:59:35.055Z,95.34
2019-01-18T02:00:35.045Z,95.23
2019-01-18T02:01:35.038Z,95.34
2019-01-18T02:02:35.047Z,95.44
2019-01-18T02:03:35.041Z,95.44
2019-01-18T02:04:35.019Z,95.76
2019-01-18T02:05:34.995Z,95.44
2019-01-18T02:06:34.987Z,95.44
2019-01-18T02:07:34.977Z,95.76
2019-01-18T02:08:34.984Z,96.07
2019-01-18T02:09:34.960Z,95.76
2019-01-18T02:10:34.948Z,95.86
2019-01-18T02:11:34.964Z,95.86
2019-01-18T02:12:34.927Z,96.07
2019-01-18T02:13:34.932Z,96.17
2019-01-18T02:14:34.903Z,96.17
2019-01-18T02:15:34.895Z,96.28
2019-01-18T02:16:34.886Z,95.44
2019-01-18T02:17:34.871Z,95.55
2019-01-18T02:18:34.889Z,95.34
2019-01-18T02:19:34.856Z,96.17
2019-01-18T02:20:34.849Z,96.17
2019-01-18T02:21:34.864Z,96.11
2019-01-18T02:22:34.822Z,96.33
2019-01-18T02:23:34.812Z,96.17
2019-01-18T02:24:34.826Z,95.65
2019-01-18T02:25:34.803Z,95.76
2019-01-18T02:26:34.784Z,95.86
2019-01-18T02:27:34.777Z,95.44
2019-01-18T02:28:34.763Z,95.13
2019-01-18T02:29:34.799Z,95.97
2019-01-18T02:30:34.758Z,95.76
2019-01-18T02:31:34.733Z,95.86
2019-01-18T02:32:34.720Z,95.76
2019-01-18T02:33:34.712Z,95.44
2019-01-18T02:34:34.754Z,95.76
2019-01-18T02:35:34.712Z,95.76
2019-01-18T02:36:34.683Z,95.34
2019-01-18T02:37:34.666Z,95.86
2019-01-18T02:38:34.657Z,95.80
2019-01-18T02:39:34.664Z,95.65
2019-01-18T02:40:34.678Z,96.07
2019-01-18T02:41:34.625Z,96.17
2019-01-18T02:42:34.626Z,96.07
2019-01-18T02:43:34.611Z,96.07
2019-01-18T02:44:34.673Z,96.28
2019-01-18T02:45:34.617Z,96.07
2019-01-18T02:46:34.668Z,95.86
2019-01-18T02:47:34.589Z,95.65
2019-01-18T02:48:34.573Z,96.17
2019-01-18T02:49:34.589Z,95.97
2019-01-18T02:50:34.566Z,95.44
2019-01-18T02:51:34.542Z,95.38
2019-01-18T02:52:34.518Z,95.76
2019-01-18T02:53:34.510Z,95.90
2019-01-18T02:54:34.626Z,96.11
2019-01-18T02:55:34.610Z,95.34
2019-01-18T02:56:34.534Z,94.96
2019-01-18T02:57:34.472Z,95.07
2019-01-18T02:58:34.467Z,95.86
2019-01-18T02:59:34.456Z,95.97
2019-01-18T03:00:34.480Z,96.07
2019-01-18T03:01:34.463Z,95.97
2019-01-18T03:02:34.414Z,95.76
2019-01-18T03:03:34.409Z,95.86
2019-01-18T03:04:34.400Z,95.86
2019-01-18T03:05:34.383Z,96.11
2019-01-18T03:06:34.398Z,94.86
2019-01-18T03:07:34.374Z,94.92
2019-01-18T03:08:34.353Z,94.71
2019-01-18T03:09:34.344Z,95.03
2019-01-18T03:10:34.335Z,94.29
2019-01-18T03:11:34.408Z,94.40
2019-01-18T03:12:34.314Z,94.29
2019-01-18T03:13:34.302Z,94.29
2019-01-18T03:14:34.307Z,95.03
2019-01-18T03:15:34.319Z,94.86
2019-01-18T03:16:34.262Z,95.03
2019-01-18T03:17:34.296Z,95.28
2019-01-18T03:18:34.248Z,95.23
2019-01-18T03:19:34.243Z,94.92
2019-01-18T03:20:34.228Z,94.92
2019-01-18T03:21:34.273Z,95.13
2019-01-18T03:22:34.231Z,94.92
2019-01-18T03:23:34.211Z,95.13
2019-01-18T03:24:34.185Z,95.44
2019-01-18T03:25:34.178Z,95.55
2019-01-18T03:26:34.168Z,94.92
2019-01-18T03:27:34.198Z,94.92
2019-01-18T03:28:34.151Z,95.07
2019-01-18T03:29:34.139Z,94.71
2019-01-18T03:30:34.125Z,94.61
2019-01-18T03:31:34.132Z,94.61
2019-01-18T03:32:34.106Z,94.82
2019-01-18T03:33:34.110Z,94.40
2019-01-18T03:34:34.080Z,94.19
2019-01-18T03:35:34.071Z,94.40
2019-01-18T03:36:34.074Z,94.29
2019-01-18T03:37:34.048Z,94.13
2019-01-18T03:38:34.073Z,94.40
2019-01-18T03:39:34.030Z,94.40
2019-01-18T03:40:34.038Z,94.40
2019-01-18T03:41:34.018Z,94.82
2019-01-18T03:42:33.998Z,94.71
2019-01-18T03:43:34.010Z,94.82
2019-01-18T03:44:33.983Z,94.13
2019-01-18T03:45:33.981Z,94.09
2019-01-18T03:46:33.962Z,94.61
2019-01-18T03:47:33.952Z,94.09
2019-01-18T03:48:33.958Z,94.50
2019-01-18T03:49:33.938Z,94.23
2019-01-18T03:50:33.920Z,94.13
2019-01-18T03:51:33.906Z,94.09
2019-01-18T03:52:33.904Z,94.44
2019-01-18T03:53:33.906Z,94.34
2019-01-18T03:54:33.879Z,94.50
2019-01-18T03:55:33.863Z,94.09
2019-01-18T03:56:33.855Z,93.92
2019-01-18T03:57:33.844Z,94.13
2019-01-18T03:58:33.856Z,93.77
2019-01-18T03:59:33.839Z,93.88
2019-01-18T04:00:33.822Z,94.09
2019-01-18T04:01:33.802Z,93.61
2019-01-18T04:02:33.792Z,93.88
2019-01-18T04:03:33.797Z,93.46
2019-01-18T04:04:33.792Z,93.46
2019-01-18T04:05:33.761Z,93.57
2019-01-18T04:06:33.754Z,93.25
2019-01-18T04:07:33.737Z,93.46
2019-01-18T04:08:33.754Z,93.25
2019-01-18T04:09:33.734Z,92.41
2019-01-18T04:10:33.704Z,92.73
2019-01-18T04:11:33.698Z,93.40
2019-01-18T04:12:33.685Z,93.15
2019-01-18T04:13:33.720Z,92.94
2019-01-18T04:14:33.669Z,93.04
2019-01-18T04:15:33.657Z,92.73
2019-01-18T04:16:33.646Z,93.15
2019-01-18T04:17:33.635Z,92.73
2019-01-18T04:18:33.659Z,92.66
2019-01-18T04:19:33.611Z,92.41
2019-01-18T04:20:33.601Z,92.63
2019-01-18T04:21:33.625Z,92.73
2019-01-18T04:22:33.603Z,92.31
2019-01-18T04:23:33.598Z,92.31
2019-01-18T04:24:33.559Z,92.10
2019-01-18T04:25:33.547Z,93.04
2019-01-18T04:26:33.541Z,92.73
2019-01-18T04:27:33.544Z,92.83
2019-01-18T04:28:33.545Z,92.83
2019-01-18T04:29:33.508Z,92.83
2019-01-18T04:30:33.900Z,92.73
2019-01-18T04:31:33.508Z,92.94
2019-01-18T04:32:33.478Z,93.25
2019-01-18T04:33:33.471Z,92.88
2019-01-18T04:34:33.475Z,92.52
2019-01-18T04:35:33.447Z,92.04
2019-01-18T04:36:33.462Z,92.00
2019-01-18T04:37:33.434Z,92.21
2019-01-18T04:38:33.415Z,92.21
2019-01-18T04:39:33.449Z,92.00
2019-01-18T04:40:33.408Z,91.89
2019-01-18T04:41:33.387Z,92.10
2019-01-18T04:42:33.375Z,91.79
2019-01-18T04:43:33.362Z,91.94
2019-01-18T04:44:33.382Z,91.94
2019-01-18T04:45:33.381Z,91.52
2019-01-18T04:46:33.334Z,91.72
2019-01-18T04:47:33.322Z,92.04
2019-01-18T04:48:33.317Z,91.72
2019-01-18T04:49:33.359Z,91.62
2019-01-18T04:50:33.309Z,91.83
2019-01-18T04:51:33.281Z,91.83
2019-01-18T04:52:33.270Z,91.94
2019-01-18T04:53:33.254Z,91.72
2019-01-18T04:54:33.272Z,91.83
2019-01-18T04:55:33.260Z,91.52
2019-01-18T04:56:33.226Z,92.04
2019-01-18T04:57:33.214Z,91.41
2019-01-18T04:58:33.216Z,91.62
2019-01-18T04:59:33.191Z,91.41
2019-01-18T05:00:40.132Z,91.52
2019-01-18T05:01:34.195Z,91.20
2019-01-18T05:02:33.164Z,91.41
2019-01-18T05:03:33.169Z,90.89
2019-01-18T05:04:33.142Z,91.14
2019-01-18T05:05:33.131Z,91.52
2019-01-18T05:06:34.654Z,91.52
2019-01-18T05:07:33.113Z,91.41
2019-01-18T05:08:33.098Z,91.52
2019-01-18T05:09:33.088Z,91.46
2019-01-18T05:10:33.077Z,91.41
2019-01-18T05:11:33.109Z,90.89
2019-01-18T05:12:33.056Z,91.10
2019-01-18T05:13:33.054Z,90.89
2019-01-18T05:14:33.037Z,90.78
2019-01-18T05:15:33.026Z,91.00
2019-01-18T05:16:33.019Z,90.89
2019-01-18T05:17:33.032Z,90.89
2019-01-18T05:18:32.994Z,90.89
2019-01-18T05:19:32.982Z,90.68
2019-01-18T05:20:32.985Z,90.47
2019-01-18T05:21:32.965Z,90.93
2019-01-18T05:22:32.978Z,90.62
2019-01-18T05:23:32.945Z,90.62
2019-01-18T05:24:32.952Z,90.31
2019-01-18T05:25:32.922Z,90.31
2019-01-18T05:26:32.917Z,90.31
2019-01-18T05:27:32.933Z,90.52
2019-01-18T05:28:33.105Z,90.31
2019-01-18T05:29:32.926Z,90.31
2019-01-18T05:30:32.872Z,90.41
2019-01-18T05:31:32.909Z,90.20
2019-01-18T05:32:32.857Z,90.20
2019-01-18T05:33:32.865Z,90.09
2019-01-18T05:34:32.831Z,89.99
2019-01-18T05:35:32.823Z,90.09
2019-01-18T05:36:32.816Z,89.99
2019-01-18T05:37:32.811Z,90.20
2019-01-18T05:38:32.824Z,90.31
2019-01-18T05:39:32.779Z,90.31
2019-01-18T05:40:32.772Z,90.41
2019-01-18T05:41:32.762Z,90.62
2019-01-18T05:42:32.752Z,90.83
2019-01-18T05:43:32.762Z,91.03
2019-01-18T05:44:32.730Z,91.03
2019-01-18T05:45:32.716Z,91.03
2019-01-18T05:46:32.720Z,90.93
2019-01-18T05:47:32.702Z,90.93
2019-01-18T05:48:32.709Z,91.14
2019-01-18T05:49:32.680Z,91.14
2019-01-18T05:50:32.669Z,91.14
2019-01-18T05:51:32.655Z,91.03
2019-01-18T05:52:32.646Z,91.25
2019-01-18T05:53:32.631Z,91.14
2019-01-18T05:54:32.644Z,91.25
2019-01-18T05:55:32.723Z,91.46
2019-01-18T05:56:32.601Z,91.87
2019-01-18T05:57:32.589Z,91.98
2019-01-18T05:58:32.590Z,91.66
2019-01-18T05:59:32.592Z,91.77
2019-01-18T06:00:32.578Z,91.66
2019-01-18T06:01:32.548Z,92.40
2019-01-18T06:02:32.540Z,91.77
2019-01-18T06:03:32.532Z,92.19
2019-01-18T06:04:32.517Z,92.19
2019-01-18T06:05:32.527Z,92.08
2019-01-18T06:06:32.512Z,91.98
2019-01-18T06:07:32.484Z,91.87
2019-01-18T06:08:32.487Z,92.08
2019-01-18T06:09:32.461Z,91.98
2019-01-18T06:10:32.473Z,91.98
2019-01-18T06:11:32.443Z,92.29
2019-01-18T06:12:32.432Z,92.40
2019-01-18T06:13:32.422Z,92.29
2019-01-18T06:14:32.412Z,92.40
2019-01-18T06:15:32.421Z,92.40
2019-01-18T06:16:32.390Z,92.29
2019-01-18T06:17:32.484Z,91.87
2019-01-18T06:18:32.398Z,91.98
2019-01-18T06:19:32.374Z,91.98
2019-01-18T06:20:32.387Z,91.87
2019-01-18T06:21:32.338Z,91.87
2019-01-18T06:22:32.341Z,91.94
2019-01-18T06:23:32.340Z,91.98
2019-01-18T06:24:32.329Z,92.19
2019-01-18T06:25:32.337Z,91.98
2019-01-18T06:26:32.316Z,92.19
2019-01-18T06:27:32.282Z,91.77
2019-01-18T06:28:32.269Z,91.98
2019-01-18T06:29:32.252Z,91.56
2019-01-18T06:30:32.250Z,91.35
2019-01-18T06:31:32.272Z,91.46
2019-01-18T06:32:32.261Z,91.14
2019-01-18T06:33:32.384Z,91.25
2019-01-18T06:34:32.220Z,90.72
2019-01-18T06:35:32.212Z,91.25
2019-01-18T06:36:32.226Z,91.03
2019-01-18T06:37:32.174Z,90.83
2019-01-18T06:38:32.167Z,90.72
2019-01-18T06:39:32.175Z,90.52
2019-01-18T06:40:32.146Z,90.93
2019-01-18T06:41:32.138Z,90.93
2019-01-18T06:42:32.186Z,90.83
2019-01-18T06:43:32.110Z,90.52
2019-01-18T06:44:32.105Z,90.62
2019-01-18T06:45:32.091Z,90.52
2019-01-18T06:46:32.093Z,90.31
2019-01-18T06:47:32.126Z,90.34
2019-01-18T06:48:32.111Z,90.20
2019-01-18T06:49:32.055Z,90.31
2019-01-18T06:50:32.050Z,90.45
2019-01-18T06:51:32.074Z,90.34
2019-01-18T06:52:32.022Z,90.09
2019-01-18T06:53:32.006Z,90.24
2019-01-18T06:54:31.998Z,89.68
2019-01-18T06:55:32.030Z,89.47
2019-01-18T06:56:32.565Z,88.99
2019-01-18T06:57:31.970Z,89.51
2019-01-18T06:58:31.978Z,89.68
2019-01-18T06:59:31.939Z,89.72
2019-01-18T07:00:31.928Z,89.61
2019-01-18T07:01:31.924Z,89.83
2019-01-18T07:02:31.933Z,89.72
2019-01-18T07:03:31.948Z,89.61
2019-01-18T07:04:31.885Z,89.30
2019-01-18T07:05:31.948Z,89.72
2019-01-18T07:06:31.895Z,89.86
2019-01-18T07:07:31.850Z,89.65
2019-01-18T07:08:31.862Z,89.65
2019-01-18T07:09:31.842Z,89.34
2019-01-18T07:10:31.831Z,89.23
2019-01-18T07:11:31.836Z,89.13
2019-01-18T07:12:31.845Z,89.30
2019-01-18T07:13:31.800Z,89.55
2019-01-18T07:14:31.784Z,89.45
2019-01-18T07:15:31.773Z,89.34
2019-01-18T07:16:31.797Z,89.34
2019-01-18T07:17:31.757Z,89.13
2019-01-18T07:18:31.744Z,89.23
2019-01-18T07:19:31.730Z,89.13
2019-01-18T07:20:31.722Z,89.45
2019-01-18T07:21:31.750Z,89.34
2019-01-18T07:22:31.725Z,88.92
2019-01-18T07:23:31.687Z,88.92
2019-01-18T07:24:31.685Z,88.92
2019-01-18T07:25:31.683Z,89.13
2019-01-18T07:26:31.670Z,89.23
2019-01-18T07:28:40.430Z,89.23
2019-01-18T07:29:40.486Z,88.71
2019-01-18T07:30:40.432Z,89.03
2019-01-18T07:31:40.369Z,89.23
2019-01-18T07:32:40.424Z,88.71
2019-01-18T07:33:40.389Z,89.23
2019-01-18T07:34:40.385Z,89.17
2019-01-18T07:35:40.353Z,88.71
2019-01-18T07:36:40.313Z,89.03
2019-01-18T07:37:40.339Z,89.03
2019-01-18T07:38:40.355Z,89.07
2019-01-18T07:39:40.298Z,89.07
2019-01-18T07:40:40.339Z,88.96
2019-01-18T07:41:40.276Z,88.96
2019-01-18T07:42:40.271Z,89.07
2019-01-18T07:43:40.352Z,89.48
2019-01-18T07:44:40.225Z,89.13
2019-01-18T07:45:40.230Z,89.07
2019-01-18T07:46:40.202Z,89.07
2019-01-18T07:47:40.204Z,88.96
2019-01-18T07:48:40.207Z,89.38
2019-01-18T07:49:40.174Z,88.96
2019-01-18T07:50:40.164Z,88.96
2019-01-18T07:51:40.163Z,88.71
2019-01-18T07:52:40.149Z,89.17
2019-01-18T07:53:40.128Z,89.48
2019-01-18T07:54:40.142Z,88.86
2019-01-18T07:55:40.111Z,88.92
2019-01-18T07:56:40.100Z,89.38
2019-01-18T07:57:40.091Z,89.07
2019-01-18T07:58:40.082Z,88.96
2019-01-18T07:59:40.111Z,89.17
2019-01-18T08:00:40.072Z,88.86
2019-01-18T08:01:40.047Z,88.96
2019-01-18T08:02:40.037Z,88.75
2019-01-18T08:03:40.028Z,88.96
2019-01-18T08:04:40.018Z,89.07
2019-01-18T08:05:40.037Z,89.07
2019-01-18T08:06:39.995Z,89.28
2019-01-18T08:07:39.984Z,89.07
2019-01-18T08:08:39.983Z,89.80
2019-01-18T08:09:39.965Z,89.38
2019-01-18T08:10:39.995Z,89.07
2019-01-18T08:11:39.942Z,89.17
2019-01-18T08:12:39.931Z,88.96
2019-01-18T08:13:39.918Z,89.32
2019-01-18T08:14:39.920Z,88.96
2019-01-18T08:15:39.920Z,88.86
2019-01-18T08:16:39.889Z,88.75
2019-01-18T08:17:39.910Z,89.17
2019-01-18T08:18:39.870Z,89.38
2019-01-18T08:19:39.867Z,89.38
2019-01-18T08:20:39.871Z,89.07
2019-01-18T08:21:39.836Z,89.59
2019-01-18T08:22:39.827Z,89.28
2019-01-18T08:23:39.858Z,89.11
2019-01-18T08:24:39.809Z,89.28
2019-01-18T08:25:39.795Z,89.42
2019-01-18T08:26:39.818Z,89.48
2019-01-18T08:27:39.777Z,89.53
2019-01-18T08:28:39.786Z,89.84
2019-01-18T08:29:39.754Z,89.84
2019-01-18T08:30:39.742Z,89.73
2019-01-18T08:31:39.764Z,89.80
2019-01-18T08:32:39.733Z,89.70
2019-01-18T08:33:39.713Z,90.36
2019-01-18T08:34:39.701Z,90.16
2019-01-18T08:35:39.691Z,90.16
2019-01-18T08:36:39.731Z,89.95
2019-01-18T08:37:39.671Z,90.47
2019-01-18T08:38:39.663Z,90.53
2019-01-18T08:39:39.649Z,90.43
2019-01-18T08:40:39.642Z,90.26
2019-01-18T08:41:39.626Z,90.26
2019-01-18T08:42:39.642Z,89.95
2019-01-18T08:43:39.620Z,90.16
2019-01-18T08:44:39.603Z,90.26
2019-01-18T08:45:39.613Z,90.33
2019-01-18T08:46:39.578Z,90.22
2019-01-18T08:47:39.594Z,90.01
2019-01-18T08:48:39.556Z,90.01
2019-01-18T08:49:39.545Z,90.26
2019-01-18T08:50:39.542Z,90.22
2019-01-18T08:51:39.526Z,90.43
2019-01-18T08:52:39.535Z,90.53
2019-01-18T08:53:39.511Z,90.43
2019-01-18T08:54:39.493Z,90.53
2019-01-18T08:55:39.496Z,91.06
2019-01-18T08:56:39.472Z,91.06
2019-01-18T08:57:39.465Z,91.06
2019-01-18T08:58:39.469Z,90.99
2019-01-18T08:59:39.456Z,91.27
2019-01-18T09:00:39.430Z,90.84
2019-01-18T09:01:39.426Z,90.74
2019-01-18T09:02:39.409Z,91.27
2019-01-18T09:03:39.420Z,91.37
2019-01-18T09:04:39.405Z,91.27
2019-01-18T09:05:39.377Z,91.27
2019-01-18T09:06:39.371Z,91.27
2019-01-18T09:07:39.358Z,91.06
2019-01-18T09:08:39.391Z,92.21
2019-01-18T09:09:39.340Z,92.42
2019-01-18T09:10:39.326Z,92.10
2019-01-18T09:11:39.315Z,92.21
2019-01-18T09:12:39.308Z,91.89
2019-01-18T09:13:39.351Z,92.00
2019-01-18T09:14:39.291Z,93.67
2019-01-18T09:15:39.275Z,94.09
2019-01-18T09:16:39.265Z,93.67
2019-01-18T09:17:39.265Z,93.36
2019-01-18T09:18:39.241Z,92.10
2019-01-18T09:19:39.250Z,92.16
2019-01-18T09:20:39.226Z,92.16
2019-01-18T09:21:39.210Z,92.31
2019-01-18T09:22:39.220Z,93.52
2019-01-18T09:23:39.191Z,92.63
2019-01-18T09:24:39.209Z,92.06
2019-01-18T09:25:39.168Z,92.38
2019-01-18T09:26:39.173Z,94.26
2019-01-18T09:27:39.150Z,95.31
2019-01-18T09:28:39.139Z,95.31
2019-01-18T09:29:39.125Z,94.26
2019-01-18T09:30:39.139Z,94.46
2019-01-18T09:31:42.657Z,94.74
2019-01-18T09:32:39.096Z,95.47
2019-01-18T09:33:39.087Z,95.99
2019-01-18T09:34:39.071Z,95.26
2019-01-18T09:35:39.093Z,94.84
2019-01-18T09:36:39.055Z,95.05
2019-01-18T09:37:39.042Z,95.37
2019-01-18T09:38:39.032Z,95.53
2019-01-18T09:39:39.033Z,96.05
2019-01-18T09:40:39.045Z,96.37
2019-01-18T09:41:46.576Z,96.26
2019-01-18T09:42:39.053Z,96.89
2019-01-18T09:43:38.981Z,97.31
2019-01-18T09:44:39.013Z,97.94
2019-01-18T09:45:39.019Z,97.31
2019-01-18T09:46:38.975Z,96.58
2019-01-18T09:47:38.981Z,96.26
2019-01-18T09:48:38.976Z,96.05
2019-01-18T09:49:39.041Z,96.05
2019-01-18T09:50:38.906Z,96.05
2019-01-18T09:51:38.923Z,96.58
2019-01-18T09:52:38.888Z,97.00
2019-01-18T09:53:38.900Z,96.26
2019-01-18T09:54:38.863Z,96.05
2019-01-18T09:55:38.858Z,96.05
2019-01-18T09:56:46.557Z,95.11
2019-01-18T09:57:38.888Z,94.70
2019-01-18T09:58:38.888Z,94.59
2019-01-18T09:59:38.942Z,94.70
2019-01-18T10:00:38.816Z,95.28
2019-01-18T10:01:38.834Z,95.84
2019-01-18T10:02:38.796Z,95.11
2019-01-18T10:03:38.777Z,96.05
2019-01-18T10:04:38.779Z,95.21
2019-01-18T10:05:38.750Z,94.80
2019-01-18T10:06:38.747Z,94.49
2019-01-18T10:07:38.760Z,95.84
2019-01-18T10:08:38.738Z,96.47
2019-01-18T10:09:38.711Z,95.95
2019-01-18T10:10:38.702Z,95.49
2019-01-18T10:11:38.731Z,95.21
2019-01-18T10:12:38.724Z,95.17
2019-01-18T10:13:38.668Z,95.01
2019-01-18T10:14:38.660Z,94.80
2019-01-18T10:15:38.659Z,94.38
2019-01-18T10:16:38.634Z,94.80
2019-01-18T10:17:38.663Z,94.49
2019-01-18T10:18:38.621Z,95.11
2019-01-18T10:19:38.604Z,94.65
2019-01-18T10:20:38.600Z,94.17
2019-01-18T10:21:38.599Z,94.02
2019-01-18T10:22:38.577Z,94.02
2019-01-18T10:23:38.583Z,94.86
2019-01-18T10:24:38.558Z,94.34
2019-01-18T10:25:38.543Z,93.92
2019-01-18T10:26:38.544Z,93.54
2019-01-18T10:27:38.528Z,93.13
2019-01-18T10:28:38.540Z,92.92
2019-01-18T10:29:38.506Z,93.82
2019-01-18T10:30:38.523Z,94.13
2019-01-18T10:31:38.480Z,94.44
2019-01-18T10:32:38.469Z,94.02
2019-01-18T10:33:38.459Z,93.50
2019-01-18T10:34:38.470Z,93.08
2019-01-18T10:35:38.458Z,93.15
2019-01-18T10:36:38.432Z,92.94
2019-01-18T10:37:38.423Z,92.88
2019-01-18T10:38:46.048Z,92.94
2019-01-18T10:39:38.513Z,94.50
2019-01-18T10:40:38.452Z,93.67
2019-01-18T10:41:39.201Z,93.46
2019-01-18T10:42:38.374Z,93.77
2019-01-18T10:43:38.371Z,93.25
2019-01-18T10:44:38.368Z,93.35
2019-01-18T10:45:38.353Z,93.04
2019-01-18T10:46:38.325Z,93.41
2019-01-18T10:47:38.333Z,93.21
2019-01-18T10:48:38.309Z,93.10
2019-01-18T10:49:38.328Z,94.15
2019-01-18T10:50:38.572Z,94.67
2019-01-18T10:51:38.280Z,94.78
2019-01-18T10:52:38.274Z,94.35
2019-01-18T10:53:38.259Z,94.25
2019-01-18T10:54:38.283Z,94.67
2019-01-18T10:55:38.262Z,94.35
2019-01-18T10:56:38.253Z,94.63
2019-01-18T10:57:38.216Z,93.90
2019-01-18T10:58:38.201Z,94.63
2019-01-18T10:59:38.235Z,94.21
2019-01-18T11:00:38.202Z,94.63
2019-01-18T11:01:38.183Z,93.90
2019-01-18T11:02:38.171Z,94.48
2019-01-18T11:03:38.153Z,93.90
2019-01-18T11:04:38.141Z,94.31
2019-01-18T11:05:38.182Z,93.65
2019-01-18T11:06:38.127Z,93.06
2019-01-18T11:07:47.091Z,93.27
2019-01-18T11:08:38.190Z,93.02
2019-01-18T11:09:46.842Z,93.33
2019-01-18T11:10:38.178Z,94.17
2019-01-18T11:11:48.208Z,93.75
2019-01-18T11:12:38.197Z,94.37
2019-01-18T11:13:47.430Z,94.27
2019-01-18T11:14:38.151Z,94.69
2019-01-18T11:15:46.797Z,94.48
2019-01-18T11:16:38.150Z,93.44
2019-01-18T11:18:47.955Z,91.66
2019-01-18T11:19:55.870Z,92.40
2019-01-18T11:20:47.845Z,91.97
2019-01-18T11:21:56.722Z,92.18
2019-01-18T11:22:47.841Z,92.12
2019-01-18T11:23:56.546Z,93.06
2019-01-18T11:24:47.808Z,93.41
2019-01-18T11:25:55.386Z,93.94
2019-01-18T11:26:47.778Z,94.88
2019-01-18T11:27:57.704Z,95.29
2019-01-18T11:28:47.808Z,96.13
2019-01-18T11:29:56.530Z,96.03
2019-01-18T11:30:47.796Z,96.03
2019-01-18T11:33:00.212Z,96.23
2019-01-18T11:34:07.715Z,95.40
2019-01-18T11:35:00.226Z,95.40
2019-01-18T11:36:09.066Z,95.40
2019-01-18T11:37:00.133Z,96.19
2019-01-18T11:38:08.909Z,96.13
2019-01-18T11:39:00.047Z,96.09
2019-01-18T11:40:07.637Z,96.09
2019-01-18T11:41:00.022Z,96.19
2019-01-18T11:42:07.596Z,96.19
2019-01-18T11:43:00.068Z,96.15
2019-01-18T11:44:07.713Z,96.25
2019-01-18T11:45:00.016Z,96.46
2019-01-18T11:47:18.701Z,95.79
2019-01-18T11:48:27.255Z,95.89
2019-01-18T11:49:18.647Z,95.17
2019-01-18T11:50:27.240Z,95.17
2019-01-18T11:51:18.661Z,95.23
2019-01-18T11:52:27.606Z,95.58
2019-01-18T11:53:18.572Z,95.79
2019-01-18T11:54:27.856Z,94.81
2019-01-18T11:55:18.583Z,94.92
2019-01-18T11:56:26.510Z,95.58
2019-01-18T11:57:18.604Z,95.58
2019-01-18T11:59:50.561Z,95.85
2019-01-18T12:02:07.997Z,94.49
2019-01-18T12:03:16.673Z,94.39
2019-01-18T12:04:07.884Z,94.29
2019-01-18T12:06:17.700Z,94.04
2019-01-18T12:07:25.486Z,94.56
2019-01-18T12:08:17.617Z,95.08
2019-01-18T12:09:26.173Z,94.51
2019-01-18T12:10:17.615Z,94.31
2019-01-18T12:12:36.927Z,92.43
2019-01-18T12:14:57.855Z,92.22
2019-01-18T12:17:11.476Z,91.50
2019-01-18T12:18:20.058Z,91.81
2019-01-18T12:19:11.519Z,91.56
2019-01-18T12:21:43.012Z,90.72
2019-01-18T12:22:43.491Z,90.72
2019-01-18T12:23:42.869Z,90.35
2019-01-18T12:24:53.594Z,90.52
2019-01-18T12:25:42.919Z,90.72
2019-01-18T12:26:54.624Z,91.04
2019-01-18T12:27:42.871Z,89.27
2019-01-18T12:28:53.299Z,88.96
2019-01-18T12:29:42.901Z,89.02
2019-01-18T12:30:51.474Z,89.54
2019-01-18T12:31:42.821Z,89.69
2019-01-18T12:34:28.813Z,88.92
2019-01-18T12:35:39.259Z,88.54
2019-01-18T12:36:28.757Z,88.40
2019-01-18T12:38:49.752Z,88.96
2019-01-18T12:39:57.255Z,89.89
2019-01-18T12:40:49.594Z,89.95
2019-01-18T12:41:50.466Z,90.00
2019-01-18T12:42:49.489Z,89.95
2019-01-18T12:43:49.510Z,89.64
2019-01-18T12:44:49.462Z,89.33
2019-01-18T12:45:49.508Z,88.81
2019-01-18T12:46:49.442Z,88.92
2019-01-18T12:47:49.447Z,88.09
2019-01-18T12:48:49.425Z,87.98
2019-01-18T12:49:49.406Z,87.56
2019-01-18T12:50:49.419Z,88.09
2019-01-18T12:51:49.410Z,88.50
2019-01-18T12:52:49.374Z,88.75
2019-01-18T12:53:49.369Z,88.54
2019-01-18T12:54:49.361Z,89.23
2019-01-18T12:55:49.418Z,89.37
2019-01-18T12:56:49.338Z,88.81
2019-01-18T12:57:49.325Z,88.40
2019-01-18T12:58:49.313Z,87.98
2019-01-18T12:59:49.301Z,88.81
2019-01-18T13:00:49.352Z,89.54
2019-01-18T13:01:49.339Z,89.54
2019-01-18T13:02:49.273Z,89.54
2019-01-18T13:03:49.265Z,88.43
2019-01-18T13:04:49.246Z,87.98
2019-01-18T13:05:49.243Z,88.40
2019-01-18T13:06:49.271Z,89.33
2019-01-18T13:07:49.218Z,89.85
2019-01-18T13:08:49.205Z,89.12
2019-01-18T13:09:49.192Z,87.98
2019-01-18T13:10:49.182Z,87.98
2019-01-18T13:11:49.190Z,87.66
2019-01-18T13:12:49.194Z,88.81
2019-01-18T13:13:49.148Z,88.98
2019-01-18T13:14:49.137Z,88.81